Latest Weather Observations for Hobart

IDT60901

Issued at 7:51 am EDT Thursday 22 February 2024 (issued every 10 minutes, with the page automatically refreshed every 10 minutes)

About weather observations | Map of Hobart area stations | Latest observations for Hobart area | Other Formats
Station Details ID: 094029 Name: HOBART (ELLERSLIE ROAD) Lat: -42.89 Lon: 147.33 Height: 50.5 m
Data from the previous 72 hours. | See also: Recent months at Hobart
Date/Time
EDT
Temp
°C
App
Temp
°C
Dew
Point
°C
Rel
Hum
%
Delta-T
°C
Wind Press
QNH
hPa
Press
MSL
hPa
Rain since
9am
mm
Dir  Spd
km/h
Gust
km/h
Spd
kts
Gust
kts
22/07:30am 21.9 16.2 14.3 62 4.5 NNW 37 48 20 26 1006.0 1005.9 0.0
22/07:00am 22.1 17.4 14.2 61 4.6 NNW 32 44 17 24 1006.0 1005.9 0.0
22/06:30am 20.9 18.2 14.5 67 3.7 NNW 22 35 12 19 1006.3 1006.2 0.0
22/06:00am 21.1 18.4 14.5 66 3.9 NNW 22 28 12 15 1006.6 1006.5 0.0
22/05:30am 21.9 21.2 14.3 62 4.5 N 11 19 6 10 1007.3 1007.2 0.0
22/05:00am 21.8 19.6 14.4 63 4.4 N 19 26 10 14 1007.4 1007.3 0.0
22/04:30am 22.1 19.4 14.5 62 4.5 N 22 28 12 15 1007.5 1007.4 0.0
22/04:00am 21.3 20.7 14.5 65 4.0 NW 11 13 6 7 1008.3 1008.3 0.0
22/03:30am 21.4 21.1 14.3 64 4.2 NNW 9 13 5 7 1008.6 1008.6 0.0
22/03:00am 22.1 21.4 14.2 61 4.6 N 11 19 6 10 1008.7 1008.7 0.0
22/02:30am 22.0 20.8 13.9 60 4.7 NNW 13 19 7 10 1009.1 1009.1 0.0
22/02:00am 22.6 20.6 13.9 58 5.1 NNW 17 24 9 13 1009.5 1009.5 0.0
22/01:30am 23.0 19.7 14.0 57 5.3 NNW 24 32 13 17 1009.7 1009.7 0.0
22/01:00am 23.2 20.1 14.5 58 5.2 NNW 24 35 13 19 1009.7 1009.7 0.0
22/12:30am 23.2 20.9 14.7 58 5.0 NNW 20 32 11 17 1010.0 1010.0 0.0
22/12:00am 23.7 20.7 14.7 57 5.4 NNW 24 39 13 21 1010.5 1010.4 0.0
 
Date/Time
EDT
Temp
°C
App
Temp
°C
Dew
Point
°C
Rel
Hum
%
Delta-T
°C
Wind Press
QNH
hPa
Press
MSL
hPa
Rain since
9am
mm
Dir  Spd
km/h
Gust
km/h
Spd
kts
Gust
kts
21/11:30pm 23.9 21.8 14.6 56 5.5 NNW 19 32 10 17 1010.9 1010.8 0.0
21/11:00pm 24.4 21.0 14.8 55 5.7 NNW 26 39 14 21 1010.9 1010.8 0.0
21/10:30pm 24.8 21.7 14.6 53 6.1 NNW 24 33 13 18 1011.3 1011.2 0.0
21/10:00pm 25.5 22.3 14.3 50 6.7 NNW 24 39 13 21 1011.4 1011.3 0.0
21/09:30pm 26.1 23.3 14.2 47 7.1 NNW 22 32 12 17 1011.5 1011.4 0.0
21/09:00pm 26.8 24.1 13.5 44 7.9 NNW 20 30 11 16 1011.1 1011.0 0.0
21/08:30pm 27.5 24.3 13.1 41 8.5 NNW 22 35 12 19 1010.7 1010.6 0.0
21/08:00pm 28.2 24.6 12.9 38 9.0 NNW 24 35 13 19 1010.1 1010.1 0.0
21/07:30pm 28.8 26.0 13.1 38 9.3 N 20 33 11 18 1009.8 1009.8 0.0
21/07:00pm 29.7 25.6 12.6 35 10.1 N 26 43 14 23 1009.6 1009.6 0.0
21/06:30pm 30.3 26.7 11.8 32 10.8 N 22 41 12 22 1009.7 1009.7 0.0
21/06:00pm 30.0 26.3 11.5 32 10.7 N 22 32 12 17 1009.8 1009.8 0.0
21/05:30pm 29.6 29.2 14.2 39 9.3 E 9 20 5 11 1010.1 1010.1 0.0
21/05:00pm 30.8 28.6 12.2 32 11.0 NE 15 22 8 12 1010.4 1010.3 0.0
21/04:30pm 30.9 28.2 12.8 33 10.8 N 19 33 10 18 1011.1 1011.0 0.0
21/04:00pm 30.1 29.7 14.2 38 9.6 E 9 20 5 11 1011.6 1011.5 0.0
21/03:30pm 28.1 26.6 15.4 46 7.8 ESE 17 20 9 11 1012.1 1012.0 0.0
21/03:00pm 29.3 28.2 14.3 40 9.1 SE 13 17 7 9 1012.8 1012.7 0.0
21/02:30pm 27.8 26.1 15.8 48 7.4 SE 19 24 10 13 1013.4 1013.3 0.0
21/02:00pm 27.3 25.1 15.0 47 7.5 ESE 20 26 11 14 1013.9 1013.8 0.0
21/01:30pm 27.5 26.4 15.2 47 7.5 ESE 15 19 8 10 1014.3 1014.2 0.0
21/01:00pm 26.6 25.5 14.4 47 7.3 E 13 20 7 11 1014.9 1014.8 0.0
21/12:30pm 27.4 27.1 14.4 45 7.8 NE 9 15 5 8 1015.6 1015.5 0.0
21/12:00pm 26.5 25.5 14.6 48 7.1 NNW 13 20 7 11 1016.2 1016.1 0.0
21/11:30am 24.7 23.2 14.2 52 6.2 NNW 15 20 8 11 1016.8 1016.7 0.0
21/11:00am 24.1 23.1 14.5 55 5.7 NW 13 20 7 11 1017.5 1017.4 0.0
21/10:30am 23.1 22.6 14.9 60 4.9 NNW 11 17 6 9 1017.9 1017.8 0.0
21/10:00am 20.6 20.1 13.8 65 3.9 NNW 9 13 5 7 1018.3 1018.2 0.0
21/09:30am 19.1 18.4 13.1 68 3.4 N 9 13 5 7 1018.5 1018.4 0.0
21/09:00am 18.6 17.4 12.8 69 3.3 N 11 13 6 7 1018.6 1018.5 0.0
21/08:30am 18.1 17.6 12.8 71 3.0 N 7 9 4 5 1018.4 1018.3 0.0
21/08:00am 17.7 17.2 12.6 72 2.8 NNW 7 11 4 6 1018.5 1018.4 0.0
21/07:30am 17.1 16.6 12.6 75 2.5 NE 7 9 4 5 1018.7 1018.6 0.0
21/07:00am 16.4 16.8 12.4 77 2.2 W 2 6 1 3 1018.5 1018.4 0.0
21/06:30am 16.1 15.6 12.5 79 2.0 NW 7 9 4 5 1018.4 1018.3 0.0
21/06:00am 15.8 16.6 12.5 81 1.8 CALM 0 0 0 0 1018.5 1018.4 0.0
21/05:30am 15.1 15.6 11.7 80 1.8 CALM 0 0 0 0 1018.3 1018.2 0.0
21/05:00am 15.2 15.7 11.6 79 1.9 CALM 0 0 0 0 1018.4 1018.3 0.0
21/04:30am 15.3 14.5 11.7 79 1.9 NW 7 11 4 6 1018.3 1018.2 0.0
21/04:00am 15.3 14.4 11.5 78 2.0 NE 7 7 4 4 1018.6 1018.5 0.0
21/03:30am 15.2 15.7 11.6 79 1.9 CALM 0 0 0 0 1018.7 1018.6 0.0
21/03:00am 15.1 15.5 11.3 78 2.0 CALM 0 0 0 0 1018.8 1018.7 0.0
21/02:30am 15.5 16.0 11.7 78 2.1 CALM 0 0 0 0 1019.2 1019.1 0.0
21/02:00am 15.3 15.3 11.3 77 2.1 WNW 2 6 1 3 1019.5 1019.4 0.0
21/01:30am 15.5 15.9 11.3 76 2.3 CALM 0 0 0 0 1019.4 1019.3 0.0
21/01:00am 15.9 15.2 11.5 75 2.4 N 6 9 3 5 1019.8 1019.7 0.0
21/12:30am 15.7 15.0 11.3 75 2.4 WNW 6 9 3 5 1019.9 1019.8 0.0
21/12:00am 16.1 15.8 11.3 73 2.6 WSW 4 9 2 5 1019.9 1019.8 0.0
 
Date/Time
EDT
Temp
°C
App
Temp
°C
Dew
Point
°C
Rel
Hum
%
Delta-T
°C
Wind Press
QNH
hPa
Press
MSL
hPa
Rain since
9am
mm
Dir  Spd
km/h
Gust
km/h
Spd
kts
Gust
kts
20/11:30pm 16.8 16.3 11.9 73 2.7 WNW 6 7 3 4 1020.1 1020.0 0.0
20/11:00pm 16.5 14.5 11.4 72 2.8 WSW 13 15 7 8 1020.2 1020.1 0.0
20/10:30pm 16.9 16.0 11.4 70 3.0 WSW 7 9 4 5 1020.5 1020.4 0.0
20/10:00pm 17.5 16.6 11.5 68 3.3 WSW 7 9 4 5 1020.6 1020.5 0.0
20/09:30pm 18.0 17.4 12.2 69 3.2 SW 7 11 4 6 1020.5 1020.4 0.0
20/09:00pm 18.5 17.5 12.3 67 3.4 SW 9 11 5 6 1020.3 1020.2 0.0
20/08:30pm 19.2 18.6 13.4 69 3.3 SSE 9 13 5 7 1019.8 1019.7 0.0
20/08:00pm 19.7 18.1 12.9 65 3.8 SSE 13 17 7 9 1019.7 1019.6 0.0
20/07:30pm 20.6 18.2 12.6 60 4.5 ESE 17 24 9 13 1019.5 1019.4 0.0
20/07:00pm 20.7 18.8 12.9 61 4.4 SE 15 24 8 13 1019.3 1019.2 0.0
20/06:30pm 21.4 19.2 13.3 60 4.7 SE 17 22 9 12 1019.4 1019.3 0.0
20/06:00pm 21.1 18.9 13.3 61 4.5 ESE 17 22 9 12 1019.5 1019.4 0.0
20/05:30pm 21.4 18.7 12.8 58 4.9 ESE 19 28 10 15 1019.4 1019.3 0.0
20/05:00pm 23.0 20.5 13.5 55 5.5 SE 19 24 10 13 1019.5 1019.4 0.0
20/04:30pm 22.1 19.1 12.6 55 5.4 SE 20 28 11 15 1019.6 1019.5 0.0
20/04:00pm 21.6 18.4 13.2 58 4.8 SE 22 30 12 16 1019.7 1019.6 0.0
20/03:30pm 22.8 20.3 13.6 56 5.4 SE 19 26 10 14 1020.0 1019.9 0.0
20/03:00pm 22.3 19.8 13.4 57 5.1 ESE 19 24 10 13 1020.3 1020.2 0.0
20/02:30pm 21.9 19.2 13.0 57 5.1 ESE 19 26 10 14 1020.4 1020.3 0.0
20/02:00pm 22.3 19.9 12.8 55 5.4 SE 17 20 9 11 1020.7 1020.6 0.0
20/01:30pm 22.6 20.8 12.0 51 6.0 SE 13 17 7 9 1020.7 1020.6 0.0
20/01:00pm 21.6 19.8 11.0 51 5.8 SE 11 15 6 8 1020.7 1020.6 0.0
20/12:30pm 22.0 20.7 11.1 50 6.0 E 9 15 5 8 1021.1 1021.0 0.0
20/12:00pm 21.9 20.6 11.3 51 5.9 NE 9 11 5 6 1021.3 1021.2 0.0
20/11:30am 22.7 21.4 11.1 48 6.5 NNE 9 13 5 7 1021.6 1021.5 0.0
20/11:00am 23.0 21.7 11.4 48 6.5 N 9 17 5 9 1021.8 1021.7 0.0
20/10:30am 21.2 19.4 11.0 52 5.6 NNW 11 17 6 9 1022.0 1021.9 0.0
20/10:00am 20.5 18.3 10.9 54 5.2 N 13 20 7 11 1022.2 1022.1 0.0
20/09:30am 18.8 16.2 10.6 59 4.4 NNW 15 19 8 10 1022.3 1022.2 0.0
20/09:00am 17.5 15.2 10.4 63 3.8 N 13 20 7 11 1022.5 1022.4 0.0
20/08:30am 17.2 15.4 10.8 66 3.4 NNW 11 17 6 9 1022.5 1022.4 0.0
20/08:00am 15.9 13.9 10.2 69 3.0 N 11 17 6 9 1022.4 1022.3 0.0
20/07:30am 15.7 14.1 10.2 70 2.9 N 9 15 5 8 1022.3 1022.2 0.0
20/07:00am 15.5 13.9 10.3 71 2.7 N 9 13 5 7 1022.3 1022.2 0.0
20/06:30am 15.3 13.3 10.1 71 2.7 N 11 13 6 7 1022.3 1022.2 0.0
20/06:00am 15.4 13.7 10.0 70 2.8 N 9 13 5 7 1022.1 1022.0 0.0
20/05:30am 15.4 13.3 9.7 69 3.0 N 11 17 6 9 1022.1 1022.0 0.0
20/05:00am 15.5 13.7 9.4 67 3.1 N 9 15 5 8 1022.2 1022.1 0.0
20/04:30am 15.6 13.8 9.5 67 3.2 N 9 15 5 8 1022.2 1022.1 0.0
20/04:00am 15.6 13.1 9.7 68 3.1 N 13 19 7 10 1022.4 1022.3 0.0
20/03:30am 15.6 13.4 9.5 67 3.2 N 11 19 6 10 1022.6 1022.5 0.0
20/03:00am 15.6 13.0 9.3 66 3.2 N 13 15 7 8 1022.8 1022.7 0.0
20/02:30am 15.6 13.8 9.3 66 3.3 N 9 15 5 8 1023.2 1023.1 0.0
20/02:00am 15.5 13.2 9.0 65 3.3 N 11 15 6 8 1023.2 1023.1 0.0
20/01:30am 15.6 13.7 9.1 65 3.3 NNE 9 15 5 8 1023.6 1023.5 0.0
20/01:00am 15.6 13.6 8.8 64 3.5 N 9 13 5 7 1023.8 1023.7 0.0
20/12:30am 15.7 13.8 9.1 65 3.4 NNE 9 15 5 8 1023.9 1023.8 0.0
20/12:00am 15.6 14.2 8.8 64 3.5 NNE 6 9 3 5 1024.1 1024.0 0.0
 
Date/Time
EDT
Temp
°C
App
Temp
°C
Dew
Point
°C
Rel
Hum
%
Delta-T
°C
Wind Press
QNH
hPa
Press
MSL
hPa
Rain since
9am
mm
Dir  Spd
km/h
Gust
km/h
Spd
kts
Gust
kts
19/11:30pm 15.5 13.5 8.7 64 3.5 NNE 9 13 5 7 1024.2 1024.1 0.0
19/11:00pm 15.5 13.5 8.7 64 3.5 ENE 9 15 5 8 1024.4 1024.3 0.0
19/10:30pm 15.5 12.7 8.5 63 3.6 ENE 13 17 7 9 1024.4 1024.3 0.0
19/10:00pm 15.6 12.8 8.6 63 3.5 NE 13 19 7 10 1024.6 1024.5 0.0
19/09:30pm 15.6 14.2 8.8 64 3.5 SSE 6 11 3 6 1024.4 1024.3 0.0
19/09:00pm 15.5 12.7 8.5 63 3.5 S 13 19 7 10 1024.3 1024.2 0.0
19/08:30pm 15.5 12.3 8.5 63 3.6 S 15 20 8 11 1023.8 1023.7 0.0
19/08:00pm 15.4 11.4 8.2 62 3.6 SSE 19 26 10 14 1023.6 1023.5 0.0
19/07:30pm 15.7 12.2 8.7 63 3.6 SE 17 24 9 13 1023.3 1023.2 0.0
19/07:00pm 15.8 11.7 8.5 62 3.7 SSE 20 30 11 16 1023.0 1022.9 0.0
19/06:30pm 16.2 11.7 8.4 60 4.0 SSE 22 32 12 17 1022.8 1022.7 0.0
19/06:00pm 16.3 11.7 8.0 58 4.2 SE 22 30 12 16 1022.6 1022.5 0.0
19/05:30pm 16.6 11.2 8.1 57 4.3 SE 26 33 14 18 1022.6 1022.5 0.0
19/05:00pm 16.9 11.9 8.1 56 4.5 SE 24 33 13 18 1022.5 1022.4 0.0
19/04:30pm 17.4 13.0 8.8 57 4.4 SE 22 33 12 18 1022.5 1022.4 0.0
19/04:00pm 17.6 12.4 9.0 57 4.5 SE 26 39 14 21 1022.7 1022.6 0.0
19/03:30pm 17.5 11.9 8.6 56 4.6 SE 28 35 15 19 1022.8 1022.7 0.0
19/03:00pm 17.0 12.2 8.9 59 4.2 SE 24 35 13 19 1023.0 1022.9 0.0
19/02:30pm 17.4 12.7 9.3 59 4.2 SE 24 33 13 18 1023.2 1023.1 0.0
19/02:00pm 18.2 13.3 9.8 58 4.4 SE 26 33 14 18 1023.0 1022.9 0.0
19/01:30pm 17.0 12.4 9.7 62 3.8 SE 24 33 13 18 1023.1 1023.0 0.0
19/01:00pm 16.6 12.1 10.2 66 3.4 ESE 24 33 13 18 1023.0 1022.9 0.0
19/12:30pm 16.9 12.9 10.5 66 3.4 ESE 22 30 12 16 1022.9 1022.8 0.0
19/12:00pm 16.7 12.9 11.0 69 3.1 SE 22 30 12 16 1022.8 1022.7 0.0
19/11:30am 16.4 13.2 11.8 74 2.5 ESE 20 26 11 14 1022.9 1022.8 0.0
19/11:00am 16.6 13.8 11.3 71 2.9 ESE 17 24 9 13 1022.6 1022.5 0.0
19/10:30am 17.1 14.2 12.2 73 2.7 SE 19 26 10 14 1022.4 1022.3 0.0
19/10:00am 15.7 12.9 12.5 81 1.8 SE 19 24 10 13 1022.0 1021.9 0.0
19/09:30am 15.7 13.3 12.6 82 1.7 SE 17 24 9 13 1021.9 1021.8 0.0
19/09:00am 15.9 13.3 12.1 78 2.1 SE 17 20 9 11 1021.6 1021.5 0.0
19/08:30am 15.9 13.4 12.3 79 2.0 SE 17 26 9 14 1021.2 1021.1 0.0
19/08:00am 15.9 13.3 12.1 78 2.1 SE 17 24 9 13 1021.1 1021.0 0.0

Latest Capital City Observations: Canberra | Sydney | Melbourne | Brisbane | Adelaide | Perth | Hobart | Darwin

Other formats

Comma delimited format used in spreadsheet applications
http://www.bom.gov.au/fwo/IDT60901/IDT60901.94970.axf

JavaScript Object Notation format (JSON) in row-major order
http://www.bom.gov.au/fwo/IDT60901/IDT60901.94970.json

Data quality

Most of these data are generated automatically and are frequently updated. Quality checks on data are not normally performed. It is possible for incorrect values to appear. Refer to information at About Latest Weather Observations and please check the disclaimer before using these data.